sensor_id;sensor_type;location;lat;lon;timestamp;P1;durP1;ratioP1;P2;durP2;ratioP2
66189;SDS011;52992;52.084;5.412;2023-07-13T00:00:29;4.63;;;2.33;;
66189;SDS011;52992;52.084;5.412;2023-07-13T00:02:58;5.80;;;2.30;;
66189;SDS011;52992;52.084;5.412;2023-07-13T00:05:25;6.70;;;2.00;;
66189;SDS011;52992;52.084;5.412;2023-07-13T00:07:53;4.93;;;2.10;;
66189;SDS011;52992;52.084;5.412;2023-07-13T00:10:21;3.33;;;1.80;;
66189;SDS011;52992;52.084;5.412;2023-07-13T00:12:48;7.13;;;2.47;;
66189;SDS011;52992;52.084;5.412;2023-07-13T00:15:17;4.17;;;1.67;;
66189;SDS011;52992;52.084;5.412;2023-07-13T00:17:49;4.30;;;1.90;;
66189;SDS011;52992;52.084;5.412;2023-07-13T00:20:17;3.30;;;1.67;;
66189;SDS011;52992;52.084;5.412;2023-07-13T00:22:48;5.03;;;1.83;;
66189;SDS011;52992;52.084;5.412;2023-07-13T00:25:15;3.53;;;1.80;;
66189;SDS011;52992;52.084;5.412;2023-07-13T00:27:43;2.33;;;1.83;;
66189;SDS011;52992;52.084;5.412;2023-07-13T00:30:11;4.97;;;1.70;;
66189;SDS011;52992;52.084;5.412;2023-07-13T00:32:38;5.13;;;1.70;;
66189;SDS011;52992;52.084;5.412;2023-07-13T00:35:05;3.47;;;1.70;;
66189;SDS011;52992;52.084;5.412;2023-07-13T00:37:33;3.77;;;1.77;;
66189;SDS011;52992;52.084;5.412;2023-07-13T00:40:03;6.63;;;2.27;;
66189;SDS011;52992;52.084;5.412;2023-07-13T00:42:31;3.83;;;2.03;;
66189;SDS011;52992;52.084;5.412;2023-07-13T00:47:41;5.13;;;2.10;;
66189;SDS011;52992;52.084;5.412;2023-07-13T00:50:10;4.13;;;1.97;;
66189;SDS011;52992;52.084;5.412;2023-07-13T00:52:41;3.67;;;2.27;;
66189;SDS011;52992;52.084;5.412;2023-07-13T00:55:12;2.97;;;1.80;;
66189;SDS011;52992;52.084;5.412;2023-07-13T00:57:41;4.87;;;2.20;;
66189;SDS011;52992;52.084;5.412;2023-07-13T01:00:08;2.30;;;1.60;;
66189;SDS011;52992;52.084;5.412;2023-07-13T01:02:37;6.23;;;2.17;;
66189;SDS011;52992;52.084;5.412;2023-07-13T01:05:13;4.07;;;2.10;;
66189;SDS011;52992;52.084;5.412;2023-07-13T01:07:43;3.33;;;1.60;;
66189;SDS011;52992;52.084;5.412;2023-07-13T01:10:11;5.10;;;2.10;;
66189;SDS011;52992;52.084;5.412;2023-07-13T01:12:39;3.57;;;1.80;;
66189;SDS011;52992;52.084;5.412;2023-07-13T01:18:00;4.43;;;2.13;;
66189;SDS011;52992;52.084;5.412;2023-07-13T01:20:28;5.53;;;2.30;;
66189;SDS011;52992;52.084;5.412;2023-07-13T01:22:56;2.63;;;1.87;;
66189;SDS011;52992;52.084;5.412;2023-07-13T01:25:23;5.50;;;2.20;;
66189;SDS011;52992;52.084;5.412;2023-07-13T01:27:50;5.33;;;2.33;;
66189;SDS011;52992;52.084;5.412;2023-07-13T01:30:17;6.17;;;2.27;;
66189;SDS011;52992;52.084;5.412;2023-07-13T01:32:44;5.23;;;2.20;;
66189;SDS011;52992;52.084;5.412;2023-07-13T01:35:10;5.33;;;1.90;;
66189;SDS011;52992;52.084;5.412;2023-07-13T01:37:38;4.83;;;2.07;;
66189;SDS011;52992;52.084;5.412;2023-07-13T01:40:07;4.13;;;2.10;;
66189;SDS011;52992;52.084;5.412;2023-07-13T01:42:34;4.07;;;1.97;;
66189;SDS011;52992;52.084;5.412;2023-07-13T01:45:02;4.43;;;2.20;;
66189;SDS011;52992;52.084;5.412;2023-07-13T01:47:30;4.20;;;2.00;;
66189;SDS011;52992;52.084;5.412;2023-07-13T01:49:57;5.40;;;1.90;;
66189;SDS011;52992;52.084;5.412;2023-07-13T01:52:24;3.80;;;2.03;;
66189;SDS011;52992;52.084;5.412;2023-07-13T01:54:51;4.97;;;2.33;;
66189;SDS011;52992;52.084;5.412;2023-07-13T01:57:18;5.07;;;2.30;;
66189;SDS011;52992;52.084;5.412;2023-07-13T01:59:45;5.50;;;2.20;;
66189;SDS011;52992;52.084;5.412;2023-07-13T02:02:12;8.20;;;2.40;;
66189;SDS011;52992;52.084;5.412;2023-07-13T02:04:40;5.00;;;2.17;;
66189;SDS011;52992;52.084;5.412;2023-07-13T02:07:07;2.73;;;2.03;;
66189;SDS011;52992;52.084;5.412;2023-07-13T02:09:35;6.10;;;2.80;;
66189;SDS011;52992;52.084;5.412;2023-07-13T02:12:02;8.17;;;2.90;;
66189;SDS011;52992;52.084;5.412;2023-07-13T02:14:32;3.70;;;2.37;;
66189;SDS011;52992;52.084;5.412;2023-07-13T02:16:59;4.40;;;2.00;;
66189;SDS011;52992;52.084;5.412;2023-07-13T02:19:26;5.23;;;2.17;;
66189;SDS011;52992;52.084;5.412;2023-07-13T02:21:53;5.30;;;2.20;;
66189;SDS011;52992;52.084;5.412;2023-07-13T02:24:20;4.07;;;2.30;;
66189;SDS011;52992;52.084;5.412;2023-07-13T02:26:47;5.13;;;2.20;;
66189;SDS011;52992;52.084;5.412;2023-07-13T02:29:14;4.20;;;2.17;;
66189;SDS011;52992;52.084;5.412;2023-07-13T02:31:41;4.37;;;2.30;;
66189;SDS011;52992;52.084;5.412;2023-07-13T02:34:08;4.13;;;2.00;;
66189;SDS011;52992;52.084;5.412;2023-07-13T02:36:35;3.87;;;2.43;;
66189;SDS011;52992;52.084;5.412;2023-07-13T02:39:05;4.47;;;2.60;;
66189;SDS011;52992;52.084;5.412;2023-07-13T02:41:35;5.10;;;2.17;;
66189;SDS011;52992;52.084;5.412;2023-07-13T02:44:02;5.17;;;2.23;;
66189;SDS011;52992;52.084;5.412;2023-07-13T02:46:30;3.03;;;2.00;;
66189;SDS011;52992;52.084;5.412;2023-07-13T02:48:58;6.10;;;2.60;;
66189;SDS011;52992;52.084;5.412;2023-07-13T02:51:25;5.43;;;2.30;;
66189;SDS011;52992;52.084;5.412;2023-07-13T02:53:52;2.63;;;2.30;;
66189;SDS011;52992;52.084;5.412;2023-07-13T02:56:22;5.73;;;2.47;;
66189;SDS011;52992;52.084;5.412;2023-07-13T02:58:50;4.10;;;2.30;;
66189;SDS011;52992;52.084;5.412;2023-07-13T03:01:17;3.17;;;2.23;;
66189;SDS011;52992;52.084;5.412;2023-07-13T03:03:45;2.70;;;2.00;;
66189;SDS011;52992;52.084;5.412;2023-07-13T03:06:13;6.07;;;2.60;;
66189;SDS011;52992;52.084;5.412;2023-07-13T03:08:46;4.37;;;2.50;;
66189;SDS011;52992;52.084;5.412;2023-07-13T03:11:14;3.70;;;2.27;;
66189;SDS011;52992;52.084;5.412;2023-07-13T03:13:47;9.00;;;2.63;;
66189;SDS011;52992;52.084;5.412;2023-07-13T03:16:15;4.73;;;2.50;;
66189;SDS011;52992;52.084;5.412;2023-07-13T03:18:47;7.87;;;2.80;;
66189;SDS011;52992;52.084;5.412;2023-07-13T03:21:15;8.87;;;2.90;;
66189;SDS011;52992;52.084;5.412;2023-07-13T03:23:43;10.83;;;2.73;;
66189;SDS011;52992;52.084;5.412;2023-07-13T03:26:14;3.80;;;2.13;;
66189;SDS011;52992;52.084;5.412;2023-07-13T03:28:44;5.30;;;2.63;;
66189;SDS011;52992;52.084;5.412;2023-07-13T03:31:17;3.63;;;2.37;;
66189;SDS011;52992;52.084;5.412;2023-07-13T03:33:46;5.20;;;3.33;;
66189;SDS011;52992;52.084;5.412;2023-07-13T03:36:16;5.20;;;2.53;;
66189;SDS011;52992;52.084;5.412;2023-07-13T03:38:47;8.40;;;3.00;;
66189;SDS011;52992;52.084;5.412;2023-07-13T03:41:18;7.30;;;3.30;;
66189;SDS011;52992;52.084;5.412;2023-07-13T03:43:47;9.70;;;3.07;;
66189;SDS011;52992;52.084;5.412;2023-07-13T03:46:16;4.13;;;2.40;;
66189;SDS011;52992;52.084;5.412;2023-07-13T03:48:45;6.00;;;2.67;;
66189;SDS011;52992;52.084;5.412;2023-07-13T03:51:13;6.17;;;2.97;;
66189;SDS011;52992;52.084;5.412;2023-07-13T03:53:43;7.13;;;3.10;;
66189;SDS011;52992;52.084;5.412;2023-07-13T03:56:13;4.83;;;2.90;;
66189;SDS011;52992;52.084;5.412;2023-07-13T03:58:44;7.07;;;3.07;;
66189;SDS011;52992;52.084;5.412;2023-07-13T04:01:16;7.10;;;3.33;;
66189;SDS011;52992;52.084;5.412;2023-07-13T04:03:45;8.53;;;3.10;;
66189;SDS011;52992;52.084;5.412;2023-07-13T04:06:14;7.53;;;3.43;;
66189;SDS011;52992;52.084;5.412;2023-07-13T04:08:52;9.50;;;3.50;;
66189;SDS011;52992;52.084;5.412;2023-07-13T04:11:21;7.67;;;3.40;;
66189;SDS011;52992;52.084;5.412;2023-07-13T04:13:49;5.70;;;3.50;;
66189;SDS011;52992;52.084;5.412;2023-07-13T04:16:17;7.67;;;3.10;;
66189;SDS011;52992;52.084;5.412;2023-07-13T04:18:45;6.70;;;3.17;;
66189;SDS011;52992;52.084;5.412;2023-07-13T04:21:13;10.07;;;3.93;;
66189;SDS011;52992;52.084;5.412;2023-07-13T04:23:41;6.53;;;3.00;;
66189;SDS011;52992;52.084;5.412;2023-07-13T04:26:08;5.70;;;3.00;;
66189;SDS011;52992;52.084;5.412;2023-07-13T04:28:36;9.13;;;3.30;;
66189;SDS011;52992;52.084;5.412;2023-07-13T04:31:02;11.20;;;3.60;;
66189;SDS011;52992;52.084;5.412;2023-07-13T04:33:30;6.53;;;3.57;;
66189;SDS011;52992;52.084;5.412;2023-07-13T04:35:57;5.73;;;3.10;;
66189;SDS011;52992;52.084;5.412;2023-07-13T04:38:29;4.10;;;2.80;;
66189;SDS011;52992;52.084;5.412;2023-07-13T04:40:59;9.03;;;4.17;;
66189;SDS011;52992;52.084;5.412;2023-07-13T04:43:27;7.27;;;3.10;;
66189;SDS011;52992;52.084;5.412;2023-07-13T04:45:55;13.57;;;4.17;;
66189;SDS011;52992;52.084;5.412;2023-07-13T04:48:22;11.37;;;3.97;;
66189;SDS011;52992;52.084;5.412;2023-07-13T04:50:56;6.93;;;3.57;;
66189;SDS011;52992;52.084;5.412;2023-07-13T04:53:24;5.50;;;2.90;;
66189;SDS011;52992;52.084;5.412;2023-07-13T04:55:52;6.33;;;3.20;;
66189;SDS011;52992;52.084;5.412;2023-07-13T04:58:19;9.13;;;3.50;;
66189;SDS011;52992;52.084;5.412;2023-07-13T05:00:47;8.83;;;3.50;;
66189;SDS011;52992;52.084;5.412;2023-07-13T05:03:15;8.10;;;3.67;;
66189;SDS011;52992;52.084;5.412;2023-07-13T05:05:42;8.77;;;3.63;;
66189;SDS011;52992;52.084;5.412;2023-07-13T05:08:09;12.87;;;4.10;;
66189;SDS011;52992;52.084;5.412;2023-07-13T05:10:36;13.67;;;3.70;;
66189;SDS011;52992;52.084;5.412;2023-07-13T05:13:03;11.50;;;3.97;;
66189;SDS011;52992;52.084;5.412;2023-07-13T05:15:30;9.63;;;3.93;;
66189;SDS011;52992;52.084;5.412;2023-07-13T05:17:57;9.20;;;4.03;;
66189;SDS011;52992;52.084;5.412;2023-07-13T05:20:23;7.83;;;3.83;;
66189;SDS011;52992;52.084;5.412;2023-07-13T05:22:50;7.10;;;4.30;;
66189;SDS011;52992;52.084;5.412;2023-07-13T05:25:17;13.67;;;3.83;;
66189;SDS011;52992;52.084;5.412;2023-07-13T05:27:44;8.97;;;4.33;;
66189;SDS011;52992;52.084;5.412;2023-07-13T05:30:12;9.00;;;4.57;;
66189;SDS011;52992;52.084;5.412;2023-07-13T05:32:39;12.47;;;4.07;;
66189;SDS011;52992;52.084;5.412;2023-07-13T05:35:07;11.53;;;4.20;;
66189;SDS011;52992;52.084;5.412;2023-07-13T05:37:34;11.67;;;4.40;;
66189;SDS011;52992;52.084;5.412;2023-07-13T05:40:01;13.80;;;4.97;;
66189;SDS011;52992;52.084;5.412;2023-07-13T05:42:28;12.90;;;5.00;;
66189;SDS011;52992;52.084;5.412;2023-07-13T05:44:57;14.07;;;5.70;;
66189;SDS011;52992;52.084;5.412;2023-07-13T05:47:24;11.60;;;4.83;;
66189;SDS011;52992;52.084;5.412;2023-07-13T05:49:51;10.37;;;5.50;;
66189;SDS011;52992;52.084;5.412;2023-07-13T05:52:18;12.57;;;5.20;;
66189;SDS011;52992;52.084;5.412;2023-07-13T05:54:45;12.87;;;6.00;;
66189;SDS011;52992;52.084;5.412;2023-07-13T05:57:11;12.40;;;6.17;;
66189;SDS011;52992;52.084;5.412;2023-07-13T05:59:38;12.30;;;6.27;;
66189;SDS011;52992;52.084;5.412;2023-07-13T06:02:07;15.90;;;5.70;;
66189;SDS011;52992;52.084;5.412;2023-07-13T06:04:36;11.83;;;5.20;;
66189;SDS011;52992;52.084;5.412;2023-07-13T06:07:03;14.37;;;6.27;;
66189;SDS011;52992;52.084;5.412;2023-07-13T06:09:30;15.13;;;5.83;;
66189;SDS011;52992;52.084;5.412;2023-07-13T06:11:57;11.60;;;5.63;;
66189;SDS011;52992;52.084;5.412;2023-07-13T06:14:24;16.43;;;7.37;;
66189;SDS011;52992;52.084;5.412;2023-07-13T06:16:51;14.07;;;6.97;;
66189;SDS011;52992;52.084;5.412;2023-07-13T06:19:18;11.47;;;6.70;;
66189;SDS011;52992;52.084;5.412;2023-07-13T06:21:45;12.73;;;6.43;;
66189;SDS011;52992;52.084;5.412;2023-07-13T06:24:12;19.67;;;7.37;;
66189;SDS011;52992;52.084;5.412;2023-07-13T06:26:39;15.07;;;6.90;;
66189;SDS011;52992;52.084;5.412;2023-07-13T06:29:06;12.80;;;6.63;;
66189;SDS011;52992;52.084;5.412;2023-07-13T06:31:32;14.23;;;7.07;;
66189;SDS011;52992;52.084;5.412;2023-07-13T06:33:59;15.33;;;8.47;;
66189;SDS011;52992;52.084;5.412;2023-07-13T06:36:26;14.03;;;7.20;;
66189;SDS011;52992;52.084;5.412;2023-07-13T06:38:53;14.60;;;7.43;;
66189;SDS011;52992;52.084;5.412;2023-07-13T06:41:20;17.40;;;7.77;;
66189;SDS011;52992;52.084;5.412;2023-07-13T06:43:48;16.33;;;8.30;;
66189;SDS011;52992;52.084;5.412;2023-07-13T06:46:15;15.23;;;7.53;;
66189;SDS011;52992;52.084;5.412;2023-07-13T06:48:42;14.10;;;8.80;;
66189;SDS011;52992;52.084;5.412;2023-07-13T06:51:09;18.77;;;7.53;;
66189;SDS011;52992;52.084;5.412;2023-07-13T06:53:36;16.10;;;8.00;;
66189;SDS011;52992;52.084;5.412;2023-07-13T06:56:03;17.37;;;8.30;;
66189;SDS011;52992;52.084;5.412;2023-07-13T06:58:30;14.43;;;8.07;;
66189;SDS011;52992;52.084;5.412;2023-07-13T07:00:57;15.53;;;8.13;;
66189;SDS011;52992;52.084;5.412;2023-07-13T07:03:24;14.90;;;8.07;;
66189;SDS011;52992;52.084;5.412;2023-07-13T07:05:51;21.30;;;8.57;;
66189;SDS011;52992;52.084;5.412;2023-07-13T07:08:18;20.07;;;9.33;;
66189;SDS011;52992;52.084;5.412;2023-07-13T07:10:45;12.93;;;7.83;;
66189;SDS011;52992;52.084;5.412;2023-07-13T07:13:12;16.80;;;8.53;;
66189;SDS011;52992;52.084;5.412;2023-07-13T07:15:39;14.23;;;8.23;;
66189;SDS011;52992;52.084;5.412;2023-07-13T07:18:06;13.07;;;8.07;;
66189;SDS011;52992;52.084;5.412;2023-07-13T07:20:33;12.03;;;8.17;;
66189;SDS011;52992;52.084;5.412;2023-07-13T07:23:00;22.63;;;9.50;;
66189;SDS011;52992;52.084;5.412;2023-07-13T07:25:27;14.23;;;8.10;;
66189;SDS011;52992;52.084;5.412;2023-07-13T07:27:58;15.33;;;8.53;;
66189;SDS011;52992;52.084;5.412;2023-07-13T07:30:28;15.73;;;8.77;;
66189;SDS011;52992;52.084;5.412;2023-07-13T07:32:58;14.93;;;8.23;;
66189;SDS011;52992;52.084;5.412;2023-07-13T07:35:28;14.43;;;9.13;;
66189;SDS011;52992;52.084;5.412;2023-07-13T07:38:01;15.27;;;8.50;;
66189;SDS011;52992;52.084;5.412;2023-07-13T07:40:28;13.03;;;8.13;;
66189;SDS011;52992;52.084;5.412;2023-07-13T07:42:58;17.33;;;8.03;;
66189;SDS011;52992;52.084;5.412;2023-07-13T07:45:26;13.57;;;7.73;;
66189;SDS011;52992;52.084;5.412;2023-07-13T07:47:53;14.47;;;8.40;;
66189;SDS011;52992;52.084;5.412;2023-07-13T07:50:25;18.27;;;8.53;;
66189;SDS011;52992;52.084;5.412;2023-07-13T07:52:53;12.47;;;8.00;;
66189;SDS011;52992;52.084;5.412;2023-07-13T07:55:22;13.57;;;8.10;;
66189;SDS011;52992;52.084;5.412;2023-07-13T07:57:56;14.90;;;8.20;;
66189;SDS011;52992;52.084;5.412;2023-07-13T08:00:26;12.07;;;7.53;;
66189;SDS011;52992;52.084;5.412;2023-07-13T08:03:15;14.27;;;7.97;;
66189;SDS011;52992;52.084;5.412;2023-07-13T08:05:45;12.50;;;7.93;;
66189;SDS011;52992;52.084;5.412;2023-07-13T08:08:32;13.67;;;8.40;;
66189;SDS011;52992;52.084;5.412;2023-07-13T08:11:04;13.70;;;7.97;;
66189;SDS011;52992;52.084;5.412;2023-07-13T08:13:36;16.43;;;8.53;;
66189;SDS011;52992;52.084;5.412;2023-07-13T08:16:04;17.37;;;8.30;;
66189;SDS011;52992;52.084;5.412;2023-07-13T08:18:32;20.70;;;7.47;;
66189;SDS011;52992;52.084;5.412;2023-07-13T08:21:02;11.20;;;7.50;;
66189;SDS011;52992;52.084;5.412;2023-07-13T08:23:30;14.00;;;7.43;;
66189;SDS011;52992;52.084;5.412;2023-07-13T08:25:59;10.10;;;6.80;;
66189;SDS011;52992;52.084;5.412;2023-07-13T08:28:31;11.53;;;6.47;;
66189;SDS011;52992;52.084;5.412;2023-07-13T08:31:03;14.00;;;6.63;;
66189;SDS011;52992;52.084;5.412;2023-07-13T08:33:31;12.63;;;6.20;;
66189;SDS011;52992;52.084;5.412;2023-07-13T08:35:58;9.67;;;5.50;;
66189;SDS011;52992;52.084;5.412;2023-07-13T08:38:25;13.83;;;5.33;;
66189;SDS011;52992;52.084;5.412;2023-07-13T08:40:53;10.33;;;4.67;;
66189;SDS011;52992;52.084;5.412;2023-07-13T08:43:26;4.37;;;3.37;;
66189;SDS011;52992;52.084;5.412;2023-07-13T08:45:59;6.07;;;3.57;;
66189;SDS011;52992;52.084;5.412;2023-07-13T08:48:37;4.40;;;2.80;;
66189;SDS011;52992;52.084;5.412;2023-07-13T08:53:57;4.57;;;3.23;;
66189;SDS011;52992;52.084;5.412;2023-07-13T08:56:28;7.87;;;3.10;;
66189;SDS011;52992;52.084;5.412;2023-07-13T08:58:57;10.00;;;3.17;;
66189;SDS011;52992;52.084;5.412;2023-07-13T09:15:05;4.43;;;3.20;;
66189;SDS011;52992;52.084;5.412;2023-07-13T09:18:04;4.30;;;3.17;;
66189;SDS011;52992;52.084;5.412;2023-07-13T09:20:54;4.03;;;3.13;;
66189;SDS011;52992;52.084;5.412;2023-07-13T09:23:27;6.40;;;3.13;;
66189;SDS011;52992;52.084;5.412;2023-07-13T09:26:00;7.80;;;3.50;;
66189;SDS011;52992;52.084;5.412;2023-07-13T09:28:40;7.80;;;3.50;;
66189;SDS011;52992;52.084;5.412;2023-07-13T09:33:41;3.73;;;2.97;;
66189;SDS011;52992;52.084;5.412;2023-07-13T09:36:18;6.57;;;3.37;;
66189;SDS011;52992;52.084;5.412;2023-07-13T09:38:53;9.37;;;3.30;;
66189;SDS011;52992;52.084;5.412;2023-07-13T09:44:31;4.93;;;3.03;;
66189;SDS011;52992;52.084;5.412;2023-07-13T09:47:02;5.07;;;3.07;;
66189;SDS011;52992;52.084;5.412;2023-07-13T09:49:33;5.90;;;3.07;;
66189;SDS011;52992;52.084;5.412;2023-07-13T09:52:03;5.17;;;2.83;;
66189;SDS011;52992;52.084;5.412;2023-07-13T09:54:36;6.37;;;3.00;;
66189;SDS011;52992;52.084;5.412;2023-07-13T09:57:10;5.37;;;2.67;;
66189;SDS011;52992;52.084;5.412;2023-07-13T09:59:43;5.00;;;2.90;;
66189;SDS011;52992;52.084;5.412;2023-07-13T10:02:23;7.50;;;2.70;;
66189;SDS011;52992;52.084;5.412;2023-07-13T10:05:05;5.40;;;2.70;;
66189;SDS011;52992;52.084;5.412;2023-07-13T10:07:42;4.13;;;2.60;;
66189;SDS011;52992;52.084;5.412;2023-07-13T10:10:14;3.57;;;2.37;;
66189;SDS011;52992;52.084;5.412;2023-07-13T10:12:43;4.43;;;3.00;;
66189;SDS011;52992;52.084;5.412;2023-07-13T10:15:44;5.30;;;2.90;;
66189;SDS011;52992;52.084;5.412;2023-07-13T10:18:04;4.93;;;2.90;;
66189;SDS011;52992;52.084;5.412;2023-07-13T10:20:32;5.20;;;2.90;;
66189;SDS011;52992;52.084;5.412;2023-07-13T10:23:00;5.80;;;3.30;;
66189;SDS011;52992;52.084;5.412;2023-07-13T10:25:32;3.73;;;2.80;;
66189;SDS011;52992;52.084;5.412;2023-07-13T10:28:19;3.83;;;2.60;;
66189;SDS011;52992;52.084;5.412;2023-07-13T10:31:04;8.13;;;3.13;;
66189;SDS011;52992;52.084;5.412;2023-07-13T10:33:38;6.93;;;3.00;;
66189;SDS011;52992;52.084;5.412;2023-07-13T10:36:16;4.00;;;3.03;;
66189;SDS011;52992;52.084;5.412;2023-07-13T10:38:51;7.27;;;3.07;;
66189;SDS011;52992;52.084;5.412;2023-07-13T10:41:20;6.00;;;2.67;;
66189;SDS011;52992;52.084;5.412;2023-07-13T10:43:52;4.40;;;2.67;;
66189;SDS011;52992;52.084;5.412;2023-07-13T10:46:22;5.47;;;2.77;;
66189;SDS011;52992;52.084;5.412;2023-07-13T10:48:57;3.80;;;2.63;;
66189;SDS011;52992;52.084;5.412;2023-07-13T10:51:27;3.07;;;2.17;;
66189;SDS011;52992;52.084;5.412;2023-07-13T10:54:10;2.70;;;2.17;;
66189;SDS011;52992;52.084;5.412;2023-07-13T10:56:45;3.37;;;2.07;;
66189;SDS011;52992;52.084;5.412;2023-07-13T10:59:17;2.87;;;2.10;;
66189;SDS011;52992;52.084;5.412;2023-07-13T11:04:23;3.17;;;2.00;;
66189;SDS011;52992;52.084;5.412;2023-07-13T11:07:09;2.53;;;2.33;;
66189;SDS011;52992;52.084;5.412;2023-07-13T11:09:46;3.37;;;2.27;;
66189;SDS011;52992;52.084;5.412;2023-07-13T11:17:24;4.67;;;2.70;;
66189;SDS011;52992;52.084;5.412;2023-07-13T11:20:10;4.10;;;2.60;;
66189;SDS011;52992;52.084;5.412;2023-07-13T11:22:50;5.67;;;2.57;;
66189;SDS011;52992;52.084;5.412;2023-07-13T11:27:49;4.63;;;3.03;;
66189;SDS011;52992;52.084;5.412;2023-07-13T11:33:02;4.53;;;3.00;;
66189;SDS011;52992;52.084;5.412;2023-07-13T11:35:51;3.43;;;2.47;;
66189;SDS011;52992;52.084;5.412;2023-07-13T11:38:34;4.37;;;2.47;;
66189;SDS011;52992;52.084;5.412;2023-07-13T11:43:55;4.83;;;2.43;;
66189;SDS011;52992;52.084;5.412;2023-07-13T11:46:29;5.90;;;2.67;;
66189;SDS011;52992;52.084;5.412;2023-07-13T11:48:56;5.90;;;3.23;;
66189;SDS011;52992;52.084;5.412;2023-07-13T11:51:29;8.03;;;4.07;;
66189;SDS011;52992;52.084;5.412;2023-07-13T11:54:02;8.50;;;4.27;;
66189;SDS011;52992;52.084;5.412;2023-07-13T11:57:01;8.17;;;3.83;;
66189;SDS011;52992;52.084;5.412;2023-07-13T11:59:47;4.40;;;3.50;;
66189;SDS011;52992;52.084;5.412;2023-07-13T12:02:16;4.50;;;3.40;;
66189;SDS011;52992;52.084;5.412;2023-07-13T12:04:50;4.77;;;3.20;;
66189;SDS011;52992;52.084;5.412;2023-07-13T12:07:18;5.17;;;3.20;;
66189;SDS011;52992;52.084;5.412;2023-07-13T12:09:46;6.97;;;4.33;;
66189;SDS011;52992;52.084;5.412;2023-07-13T12:12:14;4.73;;;3.97;;
66189;SDS011;52992;52.084;5.412;2023-07-13T12:14:44;5.87;;;4.07;;
66189;SDS011;52992;52.084;5.412;2023-07-13T12:17:18;6.60;;;4.03;;
66189;SDS011;52992;52.084;5.412;2023-07-13T12:19:48;8.57;;;4.40;;
66189;SDS011;52992;52.084;5.412;2023-07-13T12:22:17;6.63;;;4.73;;
66189;SDS011;52992;52.084;5.412;2023-07-13T12:24:46;8.53;;;4.57;;
66189;SDS011;52992;52.084;5.412;2023-07-13T12:27:19;7.40;;;4.83;;
66189;SDS011;52992;52.084;5.412;2023-07-13T12:29:53;6.57;;;4.30;;
66189;SDS011;52992;52.084;5.412;2023-07-13T12:32:26;6.13;;;3.50;;
66189;SDS011;52992;52.084;5.412;2023-07-13T12:35:12;4.03;;;3.67;;
66189;SDS011;52992;52.084;5.412;2023-07-13T12:37:50;8.47;;;3.97;;
66189;SDS011;52992;52.084;5.412;2023-07-13T12:40:19;7.80;;;4.20;;
66189;SDS011;52992;52.084;5.412;2023-07-13T12:42:49;4.17;;;3.27;;
66189;SDS011;52992;52.084;5.412;2023-07-13T12:45:21;5.03;;;3.87;;
66189;SDS011;52992;52.084;5.412;2023-07-13T12:47:56;6.40;;;3.83;;
66189;SDS011;52992;52.084;5.412;2023-07-13T12:50:33;5.43;;;4.10;;
66189;SDS011;52992;52.084;5.412;2023-07-13T12:53:12;5.50;;;4.00;;
66189;SDS011;52992;52.084;5.412;2023-07-13T12:55:42;7.33;;;4.03;;
66189;SDS011;52992;52.084;5.412;2023-07-13T12:58:18;4.53;;;3.57;;
66189;SDS011;52992;52.084;5.412;2023-07-13T13:00:58;7.00;;;3.57;;
66189;SDS011;52992;52.084;5.412;2023-07-13T13:06:02;5.30;;;3.63;;
66189;SDS011;52992;52.084;5.412;2023-07-13T13:08:35;3.50;;;2.73;;
66189;SDS011;52992;52.084;5.412;2023-07-13T13:11:04;3.17;;;2.87;;
66189;SDS011;52992;52.084;5.412;2023-07-13T13:13:31;3.13;;;2.83;;
66189;SDS011;52992;52.084;5.412;2023-07-13T13:16:43;2.90;;;2.50;;
66189;SDS011;52992;52.084;5.412;2023-07-13T13:18:52;5.27;;;3.03;;
66189;SDS011;52992;52.084;5.412;2023-07-13T13:21:24;4.40;;;2.67;;
66189;SDS011;52992;52.084;5.412;2023-07-13T13:23:52;3.20;;;2.67;;
66189;SDS011;52992;52.084;5.412;2023-07-13T13:26:21;4.27;;;2.90;;
66189;SDS011;52992;52.084;5.412;2023-07-13T13:28:48;3.13;;;2.57;;
66189;SDS011;52992;52.084;5.412;2023-07-13T13:31:18;5.57;;;2.77;;
66189;SDS011;52992;52.084;5.412;2023-07-13T13:33:46;4.40;;;2.80;;
66189;SDS011;52992;52.084;5.412;2023-07-13T13:36:21;5.07;;;2.80;;
66189;SDS011;52992;52.084;5.412;2023-07-13T13:38:49;5.83;;;2.97;;
66189;SDS011;52992;52.084;5.412;2023-07-13T13:41:19;4.20;;;3.37;;
66189;SDS011;52992;52.084;5.412;2023-07-13T13:43:48;3.93;;;2.80;;
66189;SDS011;52992;52.084;5.412;2023-07-13T13:46:21;3.40;;;2.53;;
66189;SDS011;52992;52.084;5.412;2023-07-13T13:48:52;3.17;;;2.83;;
66189;SDS011;52992;52.084;5.412;2023-07-13T13:51:22;3.20;;;2.70;;
66189;SDS011;52992;52.084;5.412;2023-07-13T13:53:50;3.20;;;2.77;;
66189;SDS011;52992;52.084;5.412;2023-07-13T13:56:22;2.83;;;2.47;;
66189;SDS011;52992;52.084;5.412;2023-07-13T13:58:50;5.63;;;2.90;;
66189;SDS011;52992;52.084;5.412;2023-07-13T14:01:21;4.33;;;2.93;;
66189;SDS011;52992;52.084;5.412;2023-07-13T14:03:51;3.83;;;2.83;;
66189;SDS011;52992;52.084;5.412;2023-07-13T14:06:21;3.53;;;2.57;;
66189;SDS011;52992;52.084;5.412;2023-07-13T14:08:49;4.90;;;3.33;;
66189;SDS011;52992;52.084;5.412;2023-07-13T14:11:17;3.33;;;2.73;;
66189;SDS011;52992;52.084;5.412;2023-07-13T14:13:50;3.97;;;2.70;;
66189;SDS011;52992;52.084;5.412;2023-07-13T14:16:26;3.97;;;2.97;;
66189;SDS011;52992;52.084;5.412;2023-07-13T14:18:58;4.63;;;3.00;;
66189;SDS011;52992;52.084;5.412;2023-07-13T14:21:27;4.60;;;3.17;;
66189;SDS011;52992;52.084;5.412;2023-07-13T14:23:55;6.23;;;3.47;;
66189;SDS011;52992;52.084;5.412;2023-07-13T14:26:25;4.70;;;3.10;;
66189;SDS011;52992;52.084;5.412;2023-07-13T14:28:54;6.30;;;3.37;;
66189;SDS011;52992;52.084;5.412;2023-07-13T14:31:23;4.00;;;3.00;;
66189;SDS011;52992;52.084;5.412;2023-07-13T14:33:56;3.20;;;2.80;;
66189;SDS011;52992;52.084;5.412;2023-07-13T14:36:28;3.63;;;2.60;;
66189;SDS011;52992;52.084;5.412;2023-07-13T14:39:20;6.20;;;3.13;;
66189;SDS011;52992;52.084;5.412;2023-07-13T14:41:51;4.97;;;3.40;;
66189;SDS011;52992;52.084;5.412;2023-07-13T14:44:24;3.87;;;2.93;;
66189;SDS011;52992;52.084;5.412;2023-07-13T14:46:56;4.53;;;2.77;;
66189;SDS011;52992;52.084;5.412;2023-07-13T14:49:31;4.43;;;2.80;;
66189;SDS011;52992;52.084;5.412;2023-07-13T14:52:14;5.37;;;2.90;;
66189;SDS011;52992;52.084;5.412;2023-07-13T14:54:44;4.03;;;2.87;;
66189;SDS011;52992;52.084;5.412;2023-07-13T14:57:13;4.80;;;2.87;;
66189;SDS011;52992;52.084;5.412;2023-07-13T14:59:41;5.37;;;2.80;;
66189;SDS011;52992;52.084;5.412;2023-07-13T15:02:13;5.50;;;3.03;;
66189;SDS011;52992;52.084;5.412;2023-07-13T15:04:53;4.47;;;2.77;;
66189;SDS011;52992;52.084;5.412;2023-07-13T15:07:21;6.40;;;3.00;;
66189;SDS011;52992;52.084;5.412;2023-07-13T15:09:50;3.43;;;2.73;;
66189;SDS011;52992;52.084;5.412;2023-07-13T15:12:17;6.53;;;2.63;;
66189;SDS011;52992;52.084;5.412;2023-07-13T15:14:45;4.93;;;2.30;;
66189;SDS011;52992;52.084;5.412;2023-07-13T15:17:35;4.50;;;2.97;;
66189;SDS011;52992;52.084;5.412;2023-07-13T15:20:18;3.97;;;2.50;;
66189;SDS011;52992;52.084;5.412;2023-07-13T15:22:59;3.93;;;2.73;;
66189;SDS011;52992;52.084;5.412;2023-07-13T15:25:28;5.97;;;3.00;;
66189;SDS011;52992;52.084;5.412;2023-07-13T15:27:57;3.70;;;2.70;;
66189;SDS011;52992;52.084;5.412;2023-07-13T15:30:25;4.60;;;2.57;;
66189;SDS011;52992;52.084;5.412;2023-07-13T15:32:55;5.00;;;3.00;;
66189;SDS011;52992;52.084;5.412;2023-07-13T15:35:27;5.03;;;2.57;;
66189;SDS011;52992;52.084;5.412;2023-07-13T15:37:54;5.27;;;2.63;;
66189;SDS011;52992;52.084;5.412;2023-07-13T15:40:22;4.13;;;2.20;;
66189;SDS011;52992;52.084;5.412;2023-07-13T15:42:50;4.50;;;2.20;;
66189;SDS011;52992;52.084;5.412;2023-07-13T15:45:22;4.63;;;2.40;;
66189;SDS011;52992;52.084;5.412;2023-07-13T15:47:53;3.33;;;2.23;;
66189;SDS011;52992;52.084;5.412;2023-07-13T15:50:21;6.27;;;2.70;;